sensor_id;sensor_type;location;lat;lon;timestamp;P1;durP1;ratioP1;P2;durP2;ratioP2
22097;SDS011;11215;51.938;8.464;2022-12-24T00:02:13;7.70;;;2.03;;
22097;SDS011;11215;51.938;8.464;2022-12-24T00:04:39;4.83;;;2.27;;
22097;SDS011;11215;51.938;8.464;2022-12-24T00:07:04;4.50;;;2.03;;
22097;SDS011;11215;51.938;8.464;2022-12-24T00:09:30;5.90;;;1.90;;
22097;SDS011;11215;51.938;8.464;2022-12-24T00:11:56;4.27;;;1.97;;
22097;SDS011;11215;51.938;8.464;2022-12-24T00:14:21;4.03;;;1.90;;
22097;SDS011;11215;51.938;8.464;2022-12-24T00:16:47;2.60;;;1.70;;
22097;SDS011;11215;51.938;8.464;2022-12-24T00:19:13;3.73;;;2.10;;
22097;SDS011;11215;51.938;8.464;2022-12-24T00:21:38;2.93;;;1.40;;
22097;SDS011;11215;51.938;8.464;2022-12-24T00:24:04;4.50;;;2.00;;
22097;SDS011;11215;51.938;8.464;2022-12-24T00:26:31;4.67;;;2.20;;
22097;SDS011;11215;51.938;8.464;2022-12-24T00:28:57;5.10;;;1.73;;
22097;SDS011;11215;51.938;8.464;2022-12-24T00:31:23;1.93;;;1.73;;
22097;SDS011;11215;51.938;8.464;2022-12-24T00:33:49;3.37;;;1.60;;
22097;SDS011;11215;51.938;8.464;2022-12-24T00:36:16;3.33;;;1.83;;
22097;SDS011;11215;51.938;8.464;2022-12-24T00:38:42;2.83;;;1.57;;
22097;SDS011;11215;51.938;8.464;2022-12-24T00:41:08;6.80;;;1.87;;
22097;SDS011;11215;51.938;8.464;2022-12-24T00:43:54;6.43;;;2.10;;
22097;SDS011;11215;51.938;8.464;2022-12-24T00:46:22;4.37;;;2.20;;
22097;SDS011;11215;51.938;8.464;2022-12-24T00:48:48;2.73;;;1.90;;
22097;SDS011;11215;51.938;8.464;2022-12-24T00:51:14;7.37;;;2.87;;
22097;SDS011;11215;51.938;8.464;2022-12-24T00:53:40;4.77;;;2.40;;
22097;SDS011;11215;51.938;8.464;2022-12-24T00:56:06;6.90;;;2.00;;
22097;SDS011;11215;51.938;8.464;2022-12-24T00:58:32;8.40;;;2.13;;
22097;SDS011;11215;51.938;8.464;2022-12-24T01:00:58;5.57;;;2.10;;
22097;SDS011;11215;51.938;8.464;2022-12-24T01:03:24;5.93;;;2.43;;
22097;SDS011;11215;51.938;8.464;2022-12-24T01:06:00;5.13;;;2.23;;
22097;SDS011;11215;51.938;8.464;2022-12-24T01:08:26;6.37;;;2.47;;
22097;SDS011;11215;51.938;8.464;2022-12-24T01:10:52;4.00;;;2.27;;
22097;SDS011;11215;51.938;8.464;2022-12-24T01:13:18;6.13;;;2.63;;
22097;SDS011;11215;51.938;8.464;2022-12-24T01:15:44;7.10;;;3.20;;
22097;SDS011;11215;51.938;8.464;2022-12-24T01:18:13;7.30;;;3.37;;
22097;SDS011;11215;51.938;8.464;2022-12-24T01:20:38;7.90;;;2.97;;
22097;SDS011;11215;51.938;8.464;2022-12-24T01:23:05;8.43;;;3.53;;
22097;SDS011;11215;51.938;8.464;2022-12-24T01:25:31;7.57;;;3.87;;
22097;SDS011;11215;51.938;8.464;2022-12-24T01:27:56;10.03;;;3.43;;
22097;SDS011;11215;51.938;8.464;2022-12-24T01:30:22;10.80;;;4.13;;
22097;SDS011;11215;51.938;8.464;2022-12-24T01:32:48;8.47;;;3.60;;
22097;SDS011;11215;51.938;8.464;2022-12-24T01:35:13;10.43;;;3.67;;
22097;SDS011;11215;51.938;8.464;2022-12-24T01:37:39;11.10;;;4.23;;
22097;SDS011;11215;51.938;8.464;2022-12-24T01:40:09;6.13;;;3.60;;
22097;SDS011;11215;51.938;8.464;2022-12-24T01:42:57;8.90;;;4.13;;
22097;SDS011;11215;51.938;8.464;2022-12-24T01:48:33;11.03;;;4.40;;
22097;SDS011;11215;51.938;8.464;2022-12-24T01:53:53;9.50;;;4.17;;
22097;SDS011;11215;51.938;8.464;2022-12-24T01:56:23;13.63;;;5.03;;
22097;SDS011;11215;51.938;8.464;2022-12-24T01:58:51;10.60;;;4.87;;
22097;SDS011;11215;51.938;8.464;2022-12-24T02:01:21;12.00;;;4.67;;
22097;SDS011;11215;51.938;8.464;2022-12-24T02:03:47;14.97;;;5.40;;
22097;SDS011;11215;51.938;8.464;2022-12-24T02:06:14;15.10;;;5.20;;
22097;SDS011;11215;51.938;8.464;2022-12-24T02:08:41;14.33;;;5.60;;
22097;SDS011;11215;51.938;8.464;2022-12-24T02:11:25;20.60;;;5.83;;
22097;SDS011;11215;51.938;8.464;2022-12-24T02:13:52;11.53;;;5.07;;
22097;SDS011;11215;51.938;8.464;2022-12-24T02:27:31;16.23;;;6.40;;
22097;SDS011;11215;51.938;8.464;2022-12-24T02:30:21;16.53;;;6.00;;
22097;SDS011;11215;51.938;8.464;2022-12-24T02:32:54;15.03;;;5.17;;
22097;SDS011;11215;51.938;8.464;2022-12-24T02:35:32;15.57;;;5.40;;
22097;SDS011;11215;51.938;8.464;2022-12-24T02:38:07;17.50;;;5.10;;
22097;SDS011;11215;51.938;8.464;2022-12-24T02:40:44;18.33;;;5.80;;
22097;SDS011;11215;51.938;8.464;2022-12-24T02:43:24;14.27;;;5.53;;
22097;SDS011;11215;51.938;8.464;2022-12-24T02:45:55;16.50;;;5.77;;
22097;SDS011;11215;51.938;8.464;2022-12-24T02:48:23;13.30;;;5.30;;
22097;SDS011;11215;51.938;8.464;2022-12-24T02:51:04;14.67;;;5.13;;
22097;SDS011;11215;51.938;8.464;2022-12-24T02:53:32;12.20;;;5.27;;
22097;SDS011;11215;51.938;8.464;2022-12-24T02:56:02;17.50;;;5.97;;
22097;SDS011;11215;51.938;8.464;2022-12-24T03:01:51;14.53;;;5.47;;
22097;SDS011;11215;51.938;8.464;2022-12-24T03:07:29;17.80;;;4.77;;
22097;SDS011;11215;51.938;8.464;2022-12-24T03:10:06;17.53;;;5.20;;
22097;SDS011;11215;51.938;8.464;2022-12-24T03:12:38;13.77;;;4.60;;
22097;SDS011;11215;51.938;8.464;2022-12-24T03:15:10;13.07;;;4.20;;
22097;SDS011;11215;51.938;8.464;2022-12-24T03:17:39;13.07;;;4.83;;
22097;SDS011;11215;51.938;8.464;2022-12-24T03:20:07;15.40;;;5.07;;
22097;SDS011;11215;51.938;8.464;2022-12-24T03:22:35;15.83;;;5.40;;
22097;SDS011;11215;51.938;8.464;2022-12-24T03:25:02;17.87;;;4.47;;
22097;SDS011;11215;51.938;8.464;2022-12-24T03:27:29;18.23;;;5.20;;
22097;SDS011;11215;51.938;8.464;2022-12-24T03:29:56;16.97;;;4.70;;
22097;SDS011;11215;51.938;8.464;2022-12-24T03:32:24;15.77;;;4.80;;
22097;SDS011;11215;51.938;8.464;2022-12-24T03:34:53;15.00;;;4.23;;
22097;SDS011;11215;51.938;8.464;2022-12-24T03:37:19;14.67;;;5.07;;
22097;SDS011;11215;51.938;8.464;2022-12-24T03:39:45;15.53;;;5.47;;
22097;SDS011;11215;51.938;8.464;2022-12-24T03:42:11;17.07;;;5.33;;
22097;SDS011;11215;51.938;8.464;2022-12-24T03:44:36;15.57;;;5.17;;
22097;SDS011;11215;51.938;8.464;2022-12-24T03:47:02;23.53;;;5.70;;
22097;SDS011;11215;51.938;8.464;2022-12-24T03:49:27;13.83;;;5.00;;
22097;SDS011;11215;51.938;8.464;2022-12-24T03:51:53;17.70;;;5.60;;
22097;SDS011;11215;51.938;8.464;2022-12-24T03:54:19;14.87;;;5.27;;
22097;SDS011;11215;51.938;8.464;2022-12-24T03:56:44;16.27;;;5.57;;
22097;SDS011;11215;51.938;8.464;2022-12-24T03:59:10;18.53;;;5.13;;
22097;SDS011;11215;51.938;8.464;2022-12-24T04:01:36;14.97;;;6.03;;
22097;SDS011;11215;51.938;8.464;2022-12-24T04:04:01;23.40;;;6.67;;
22097;SDS011;11215;51.938;8.464;2022-12-24T04:06:28;18.77;;;5.27;;
22097;SDS011;11215;51.938;8.464;2022-12-24T04:08:54;18.23;;;5.60;;
22097;SDS011;11215;51.938;8.464;2022-12-24T04:11:19;19.10;;;6.50;;
22097;SDS011;11215;51.938;8.464;2022-12-24T04:13:45;21.83;;;5.63;;
22097;SDS011;11215;51.938;8.464;2022-12-24T04:16:11;18.43;;;5.70;;
22097;SDS011;11215;51.938;8.464;2022-12-24T04:18:38;22.37;;;5.87;;
22097;SDS011;11215;51.938;8.464;2022-12-24T04:21:04;21.23;;;5.60;;
22097;SDS011;11215;51.938;8.464;2022-12-24T04:23:31;19.77;;;5.43;;
22097;SDS011;11215;51.938;8.464;2022-12-24T04:26:01;15.13;;;5.70;;
22097;SDS011;11215;51.938;8.464;2022-12-24T04:28:28;19.00;;;5.07;;
22097;SDS011;11215;51.938;8.464;2022-12-24T04:31:00;25.60;;;6.43;;
22097;SDS011;11215;51.938;8.464;2022-12-24T04:33:28;21.53;;;6.47;;
22097;SDS011;11215;51.938;8.464;2022-12-24T04:35:56;15.23;;;5.50;;
22097;SDS011;11215;51.938;8.464;2022-12-24T04:38:22;17.63;;;5.33;;
22097;SDS011;11215;51.938;8.464;2022-12-24T04:40:48;19.73;;;6.03;;
22097;SDS011;11215;51.938;8.464;2022-12-24T04:43:21;15.90;;;5.00;;
22097;SDS011;11215;51.938;8.464;2022-12-24T04:45:47;24.90;;;5.30;;
22097;SDS011;11215;51.938;8.464;2022-12-24T04:48:15;23.43;;;6.07;;
22097;SDS011;11215;51.938;8.464;2022-12-24T04:50:40;17.40;;;5.40;;
22097;SDS011;11215;51.938;8.464;2022-12-24T04:53:06;16.30;;;5.50;;
22097;SDS011;11215;51.938;8.464;2022-12-24T04:55:32;17.20;;;5.70;;
22097;SDS011;11215;51.938;8.464;2022-12-24T04:57:57;20.43;;;5.43;;
22097;SDS011;11215;51.938;8.464;2022-12-24T05:00:23;14.60;;;4.93;;
22097;SDS011;11215;51.938;8.464;2022-12-24T05:02:48;17.33;;;5.60;;
22097;SDS011;11215;51.938;8.464;2022-12-24T05:05:14;20.30;;;5.07;;
22097;SDS011;11215;51.938;8.464;2022-12-24T05:07:40;15.90;;;5.67;;
22097;SDS011;11215;51.938;8.464;2022-12-24T05:10:05;10.60;;;5.07;;
22097;SDS011;11215;51.938;8.464;2022-12-24T05:12:32;15.67;;;5.20;;
22097;SDS011;11215;51.938;8.464;2022-12-24T05:14:57;13.47;;;4.50;;
22097;SDS011;11215;51.938;8.464;2022-12-24T05:17:23;13.70;;;4.93;;
22097;SDS011;11215;51.938;8.464;2022-12-24T05:19:48;19.67;;;5.63;;
22097;SDS011;11215;51.938;8.464;2022-12-24T05:22:14;16.03;;;4.40;;
22097;SDS011;11215;51.938;8.464;2022-12-24T05:24:58;19.63;;;5.40;;
22097;SDS011;11215;51.938;8.464;2022-12-24T05:27:42;17.33;;;5.03;;
22097;SDS011;11215;51.938;8.464;2022-12-24T05:30:08;14.53;;;5.57;;
22097;SDS011;11215;51.938;8.464;2022-12-24T05:32:33;15.67;;;5.40;;
22097;SDS011;11215;51.938;8.464;2022-12-24T05:34:59;21.03;;;5.47;;
22097;SDS011;11215;51.938;8.464;2022-12-24T05:37:25;18.80;;;6.07;;
22097;SDS011;11215;51.938;8.464;2022-12-24T05:39:50;16.53;;;6.00;;
22097;SDS011;11215;51.938;8.464;2022-12-24T05:42:16;17.73;;;6.33;;
22097;SDS011;11215;51.938;8.464;2022-12-24T05:44:41;16.33;;;5.63;;
22097;SDS011;11215;51.938;8.464;2022-12-24T05:47:07;21.00;;;6.00;;
22097;SDS011;11215;51.938;8.464;2022-12-24T05:49:35;20.03;;;6.00;;
22097;SDS011;11215;51.938;8.464;2022-12-24T05:52:01;18.07;;;6.53;;
22097;SDS011;11215;51.938;8.464;2022-12-24T05:54:27;18.93;;;6.40;;
22097;SDS011;11215;51.938;8.464;2022-12-24T05:56:52;18.67;;;6.37;;
22097;SDS011;11215;51.938;8.464;2022-12-24T05:59:18;19.70;;;5.73;;
22097;SDS011;11215;51.938;8.464;2022-12-24T06:01:43;17.57;;;5.33;;
22097;SDS011;11215;51.938;8.464;2022-12-24T06:04:11;19.23;;;5.63;;
22097;SDS011;11215;51.938;8.464;2022-12-24T06:06:37;20.03;;;6.07;;
22097;SDS011;11215;51.938;8.464;2022-12-24T06:09:03;14.33;;;6.27;;
22097;SDS011;11215;51.938;8.464;2022-12-24T06:11:28;21.17;;;6.33;;
22097;SDS011;11215;51.938;8.464;2022-12-24T06:13:54;19.23;;;6.23;;
22097;SDS011;11215;51.938;8.464;2022-12-24T06:16:20;18.47;;;6.33;;
22097;SDS011;11215;51.938;8.464;2022-12-24T06:18:47;19.23;;;6.20;;
22097;SDS011;11215;51.938;8.464;2022-12-24T06:21:13;24.03;;;6.50;;
22097;SDS011;11215;51.938;8.464;2022-12-24T06:23:40;16.23;;;6.13;;
22097;SDS011;11215;51.938;8.464;2022-12-24T06:26:07;25.53;;;6.77;;
22097;SDS011;11215;51.938;8.464;2022-12-24T06:28:37;18.17;;;7.60;;
22097;SDS011;11215;51.938;8.464;2022-12-24T06:31:04;20.00;;;6.27;;
22097;SDS011;11215;51.938;8.464;2022-12-24T06:33:32;17.10;;;6.87;;
22097;SDS011;11215;51.938;8.464;2022-12-24T06:35:58;20.00;;;6.77;;
22097;SDS011;11215;51.938;8.464;2022-12-24T06:38:23;24.10;;;6.33;;
22097;SDS011;11215;51.938;8.464;2022-12-24T06:40:53;24.73;;;6.67;;
22097;SDS011;11215;51.938;8.464;2022-12-24T06:43:19;19.90;;;7.00;;
22097;SDS011;11215;51.938;8.464;2022-12-24T06:45:45;18.17;;;6.63;;
22097;SDS011;11215;51.938;8.464;2022-12-24T06:48:14;24.43;;;7.37;;
22097;SDS011;11215;51.938;8.464;2022-12-24T06:50:40;20.00;;;6.47;;
22097;SDS011;11215;51.938;8.464;2022-12-24T06:53:07;19.77;;;6.63;;
22097;SDS011;11215;51.938;8.464;2022-12-24T06:55:32;20.90;;;7.60;;
22097;SDS011;11215;51.938;8.464;2022-12-24T06:57:58;19.13;;;6.50;;
22097;SDS011;11215;51.938;8.464;2022-12-24T07:00:24;18.27;;;6.63;;
22097;SDS011;11215;51.938;8.464;2022-12-24T07:02:50;21.00;;;7.00;;
22097;SDS011;11215;51.938;8.464;2022-12-24T07:05:15;19.43;;;7.47;;
22097;SDS011;11215;51.938;8.464;2022-12-24T07:07:42;17.27;;;6.70;;
22097;SDS011;11215;51.938;8.464;2022-12-24T07:10:12;21.13;;;7.27;;
22097;SDS011;11215;51.938;8.464;2022-12-24T07:12:39;18.80;;;6.67;;
22097;SDS011;11215;51.938;8.464;2022-12-24T07:15:05;17.20;;;6.83;;
22097;SDS011;11215;51.938;8.464;2022-12-24T07:17:32;19.60;;;7.23;;
22097;SDS011;11215;51.938;8.464;2022-12-24T07:19:57;19.50;;;7.00;;
22097;SDS011;11215;51.938;8.464;2022-12-24T07:22:23;20.50;;;7.53;;
22097;SDS011;11215;51.938;8.464;2022-12-24T07:24:48;14.47;;;7.20;;
22097;SDS011;11215;51.938;8.464;2022-12-24T07:27:14;15.93;;;6.57;;
22097;SDS011;11215;51.938;8.464;2022-12-24T07:29:40;17.00;;;7.57;;
22097;SDS011;11215;51.938;8.464;2022-12-24T07:32:06;22.73;;;8.50;;
22097;SDS011;11215;51.938;8.464;2022-12-24T07:34:34;19.80;;;8.00;;
22097;SDS011;11215;51.938;8.464;2022-12-24T07:37:00;23.23;;;8.70;;
22097;SDS011;11215;51.938;8.464;2022-12-24T07:39:26;20.07;;;8.60;;
22097;SDS011;11215;51.938;8.464;2022-12-24T07:41:52;22.10;;;8.40;;
22097;SDS011;11215;51.938;8.464;2022-12-24T07:44:17;17.27;;;7.27;;
22097;SDS011;11215;51.938;8.464;2022-12-24T07:46:43;27.53;;;9.27;;
22097;SDS011;11215;51.938;8.464;2022-12-24T07:49:09;20.53;;;8.93;;
22097;SDS011;11215;51.938;8.464;2022-12-24T07:51:35;21.13;;;8.30;;
22097;SDS011;11215;51.938;8.464;2022-12-24T07:54:01;21.03;;;9.10;;
22097;SDS011;11215;51.938;8.464;2022-12-24T07:56:28;21.57;;;9.20;;
22097;SDS011;11215;51.938;8.464;2022-12-24T07:58:57;24.43;;;9.87;;
22097;SDS011;11215;51.938;8.464;2022-12-24T08:01:29;19.43;;;9.77;;
22097;SDS011;11215;51.938;8.464;2022-12-24T08:03:55;22.67;;;9.20;;
22097;SDS011;11215;51.938;8.464;2022-12-24T08:06:20;18.63;;;8.87;;
22097;SDS011;11215;51.938;8.464;2022-12-24T08:08:47;21.50;;;9.47;;
22097;SDS011;11215;51.938;8.464;2022-12-24T08:11:12;19.57;;;10.10;;
22097;SDS011;11215;51.938;8.464;2022-12-24T08:13:38;17.60;;;8.97;;
22097;SDS011;11215;51.938;8.464;2022-12-24T08:16:04;21.13;;;8.83;;
22097;SDS011;11215;51.938;8.464;2022-12-24T08:18:30;17.07;;;8.60;;
22097;SDS011;11215;51.938;8.464;2022-12-24T08:20:56;20.00;;;9.07;;
22097;SDS011;11215;51.938;8.464;2022-12-24T08:23:21;21.73;;;9.90;;
22097;SDS011;11215;51.938;8.464;2022-12-24T08:25:47;24.50;;;9.63;;
22097;SDS011;11215;51.938;8.464;2022-12-24T08:28:14;17.27;;;9.23;;
22097;SDS011;11215;51.938;8.464;2022-12-24T08:30:42;16.83;;;8.97;;
22097;SDS011;11215;51.938;8.464;2022-12-24T08:33:08;15.57;;;8.83;;
22097;SDS011;11215;51.938;8.464;2022-12-24T08:35:34;15.40;;;9.07;;
22097;SDS011;11215;51.938;8.464;2022-12-24T08:37:59;23.37;;;8.63;;
22097;SDS011;11215;51.938;8.464;2022-12-24T08:40:25;17.17;;;9.37;;
22097;SDS011;11215;51.938;8.464;2022-12-24T08:42:51;16.03;;;8.83;;
22097;SDS011;11215;51.938;8.464;2022-12-24T08:45:17;24.03;;;9.93;;
22097;SDS011;11215;51.938;8.464;2022-12-24T08:47:43;17.07;;;8.63;;
22097;SDS011;11215;51.938;8.464;2022-12-24T08:50:08;19.30;;;8.97;;
22097;SDS011;11215;51.938;8.464;2022-12-24T08:52:34;17.10;;;8.30;;
22097;SDS011;11215;51.938;8.464;2022-12-24T08:55:00;21.30;;;8.63;;
22097;SDS011;11215;51.938;8.464;2022-12-24T08:57:26;19.07;;;9.63;;
22097;SDS011;11215;51.938;8.464;2022-12-24T08:59:52;14.93;;;8.10;;
22097;SDS011;11215;51.938;8.464;2022-12-24T09:02:18;19.53;;;9.43;;
22097;SDS011;11215;51.938;8.464;2022-12-24T09:04:44;19.53;;;8.77;;
22097;SDS011;11215;51.938;8.464;2022-12-24T09:07:09;17.10;;;7.27;;
22097;SDS011;11215;51.938;8.464;2022-12-24T09:09:35;20.10;;;8.53;;
22097;SDS011;11215;51.938;8.464;2022-12-24T09:12:02;19.77;;;8.93;;
22097;SDS011;11215;51.938;8.464;2022-12-24T09:14:32;17.33;;;7.37;;
22097;SDS011;11215;51.938;8.464;2022-12-24T09:16:58;17.10;;;7.23;;
22097;SDS011;11215;51.938;8.464;2022-12-24T09:19:23;17.80;;;6.87;;
22097;SDS011;11215;51.938;8.464;2022-12-24T09:21:49;23.00;;;8.47;;
22097;SDS011;11215;51.938;8.464;2022-12-24T09:24:15;18.67;;;7.57;;
22097;SDS011;11215;51.938;8.464;2022-12-24T09:26:41;18.90;;;7.97;;
22097;SDS011;11215;51.938;8.464;2022-12-24T09:29:06;17.90;;;8.40;;
22097;SDS011;11215;51.938;8.464;2022-12-24T09:31:34;21.47;;;8.60;;
22097;SDS011;11215;51.938;8.464;2022-12-24T09:33:59;20.80;;;8.10;;
22097;SDS011;11215;51.938;8.464;2022-12-24T09:36:25;15.40;;;7.83;;
22097;SDS011;11215;51.938;8.464;2022-12-24T09:38:51;21.80;;;8.23;;
22097;SDS011;11215;51.938;8.464;2022-12-24T09:44:17;16.43;;;7.73;;
22097;SDS011;11215;51.938;8.464;2022-12-24T09:46:57;20.03;;;8.53;;
22097;SDS011;11215;51.938;8.464;2022-12-24T09:49:29;17.00;;;8.70;;
22097;SDS011;11215;51.938;8.464;2022-12-24T09:52:13;17.03;;;7.37;;
22097;SDS011;11215;51.938;8.464;2022-12-24T09:54:50;18.13;;;8.03;;
22097;SDS011;11215;51.938;8.464;2022-12-24T09:57:27;17.10;;;7.70;;
22097;SDS011;11215;51.938;8.464;2022-12-24T09:59:59;19.90;;;7.20;;
22097;SDS011;11215;51.938;8.464;2022-12-24T10:02:25;17.57;;;6.57;;
22097;SDS011;11215;51.938;8.464;2022-12-24T10:04:50;18.37;;;7.67;;
22097;SDS011;11215;51.938;8.464;2022-12-24T10:12:53;18.47;;;6.17;;
22097;SDS011;11215;51.938;8.464;2022-12-24T10:15:38;18.00;;;6.53;;
22097;SDS011;11215;51.938;8.464;2022-12-24T10:21:23;17.50;;;6.03;;
22097;SDS011;11215;51.938;8.464;2022-12-24T10:24:20;14.47;;;5.40;;
22097;SDS011;11215;51.938;8.464;2022-12-24T10:26:52;18.33;;;6.00;;
22097;SDS011;11215;51.938;8.464;2022-12-24T10:29:50;11.97;;;5.60;;
22097;SDS011;11215;51.938;8.464;2022-12-24T10:32:20;18.20;;;6.77;;
22097;SDS011;11215;51.938;8.464;2022-12-24T10:34:56;14.50;;;6.27;;
22097;SDS011;11215;51.938;8.464;2022-12-24T10:37:44;12.33;;;6.00;;
22097;SDS011;11215;51.938;8.464;2022-12-24T10:43:10;17.60;;;6.20;;
22097;SDS011;11215;51.938;8.464;2022-12-24T10:45:38;16.50;;;5.67;;
22097;SDS011;11215;51.938;8.464;2022-12-24T10:48:08;11.10;;;5.80;;
22097;SDS011;11215;51.938;8.464;2022-12-24T10:51:24;15.97;;;5.80;;
22097;SDS011;11215;51.938;8.464;2022-12-24T10:56:13;16.90;;;6.30;;
22097;SDS011;11215;51.938;8.464;2022-12-24T10:58:53;14.73;;;5.93;;
22097;SDS011;11215;51.938;8.464;2022-12-24T11:01:20;17.70;;;6.27;;
22097;SDS011;11215;51.938;8.464;2022-12-24T11:04:17;13.40;;;5.60;;
22097;SDS011;11215;51.938;8.464;2022-12-24T11:11:59;17.17;;;5.33;;
22097;SDS011;11215;51.938;8.464;2022-12-24T11:14:27;11.77;;;4.23;;
22097;SDS011;11215;51.938;8.464;2022-12-24T11:17:00;16.37;;;5.57;;
22097;SDS011;11215;51.938;8.464;2022-12-24T11:19:36;15.50;;;5.77;;
22097;SDS011;11215;51.938;8.464;2022-12-24T11:22:04;13.70;;;5.40;;
22097;SDS011;11215;51.938;8.464;2022-12-24T11:24:33;13.63;;;5.13;;
22097;SDS011;11215;51.938;8.464;2022-12-24T11:32:43;18.17;;;5.20;;
22097;SDS011;11215;51.938;8.464;2022-12-24T11:35:30;12.80;;;5.07;;
22097;SDS011;11215;51.938;8.464;2022-12-24T11:40:40;18.20;;;6.33;;
22097;SDS011;11215;51.938;8.464;2022-12-24T11:43:16;11.70;;;5.60;;
22097;SDS011;11215;51.938;8.464;2022-12-24T11:48:29;13.33;;;5.60;;
22097;SDS011;11215;51.938;8.464;2022-12-24T11:50:59;22.60;;;6.70;;
22097;SDS011;11215;51.938;8.464;2022-12-24T11:53:49;21.03;;;5.93;;
22097;SDS011;11215;51.938;8.464;2022-12-24T11:58:48;15.37;;;6.00;;
22097;SDS011;11215;51.938;8.464;2022-12-24T12:03:53;13.90;;;6.13;;
22097;SDS011;11215;51.938;8.464;2022-12-24T12:09:26;11.27;;;6.20;;
22097;SDS011;11215;51.938;8.464;2022-12-24T12:11:57;17.77;;;6.73;;
22097;SDS011;11215;51.938;8.464;2022-12-24T12:14:45;15.40;;;6.43;;
22097;SDS011;11215;51.938;8.464;2022-12-24T12:17:22;15.73;;;6.33;;
22097;SDS011;11215;51.938;8.464;2022-12-24T12:20:10;18.57;;;6.87;;
22097;SDS011;11215;51.938;8.464;2022-12-24T12:28:29;14.17;;;5.83;;
22097;SDS011;11215;51.938;8.464;2022-12-24T12:33:56;21.63;;;6.90;;
22097;SDS011;11215;51.938;8.464;2022-12-24T12:36:25;19.00;;;6.10;;
22097;SDS011;11215;51.938;8.464;2022-12-24T12:39:23;12.97;;;5.63;;
22097;SDS011;11215;51.938;8.464;2022-12-24T12:44:44;14.20;;;6.10;;
22097;SDS011;11215;51.938;8.464;2022-12-24T12:50:22;20.17;;;6.70;;
22097;SDS011;11215;51.938;8.464;2022-12-24T13:01:49;13.27;;;5.57;;
22097;SDS011;11215;51.938;8.464;2022-12-24T13:18:22;14.07;;;5.63;;
22097;SDS011;11215;51.938;8.464;2022-12-24T13:20:59;14.17;;;5.00;;
22097;SDS011;11215;51.938;8.464;2022-12-24T13:23:25;16.13;;;5.57;;
22097;SDS011;11215;51.938;8.464;2022-12-24T13:25:53;17.23;;;5.57;;
22097;SDS011;11215;51.938;8.464;2022-12-24T13:30:50;18.63;;;5.60;;
22097;SDS011;11215;51.938;8.464;2022-12-24T13:36:06;15.20;;;5.43;;
22097;SDS011;11215;51.938;8.464;2022-12-24T13:38:39;14.63;;;5.47;;
22097;SDS011;11215;51.938;8.464;2022-12-24T13:46:59;13.10;;;5.50;;
22097;SDS011;11215;51.938;8.464;2022-12-24T13:49:38;13.23;;;5.27;;
22097;SDS011;11215;51.938;8.464;2022-12-24T13:54:39;13.23;;;5.07;;
22097;SDS011;11215;51.938;8.464;2022-12-24T14:05:30;16.40;;;5.60;;
22097;SDS011;11215;51.938;8.464;2022-12-24T14:18:36;14.83;;;5.27;;
22097;SDS011;11215;51.938;8.464;2022-12-24T14:21:05;18.97;;;5.47;;
22097;SDS011;11215;51.938;8.464;2022-12-24T14:24:12;12.87;;;5.23;;
22097;SDS011;11215;51.938;8.464;2022-12-24T14:26:42;17.03;;;5.30;;
22097;SDS011;11215;51.938;8.464;2022-12-24T14:29:24;14.70;;;7.83;;
22097;SDS011;11215;51.938;8.464;2022-12-24T14:31:56;16.53;;;6.93;;
22097;SDS011;11215;51.938;8.464;2022-12-24T14:34:23;14.90;;;6.27;;
22097;SDS011;11215;51.938;8.464;2022-12-24T14:36:50;19.40;;;9.47;;
22097;SDS011;11215;51.938;8.464;2022-12-24T14:42:08;19.73;;;9.50;;
22097;SDS011;11215;51.938;8.464;2022-12-24T14:45:17;19.07;;;10.10;;
22097;SDS011;11215;51.938;8.464;2022-12-24T14:56:30;14.60;;;7.37;;
22097;SDS011;11215;51.938;8.464;2022-12-24T14:58:56;15.23;;;7.43;;
22097;SDS011;11215;51.938;8.464;2022-12-24T15:01:29;16.03;;;6.93;;
22097;SDS011;11215;51.938;8.464;2022-12-24T15:06:37;19.33;;;6.40;;
22097;SDS011;11215;51.938;8.464;2022-12-24T15:09:23;14.63;;;6.57;;
22097;SDS011;11215;51.938;8.464;2022-12-24T15:11:52;19.13;;;7.43;;
22097;SDS011;11215;51.938;8.464;2022-12-24T15:14:20;15.33;;;7.00;;
22097;SDS011;11215;51.938;8.464;2022-12-24T15:16:53;16.80;;;6.60;;
22097;SDS011;11215;51.938;8.464;2022-12-24T15:19:22;11.97;;;6.17;;
22097;SDS011;11215;51.938;8.464;2022-12-24T15:21:51;20.23;;;6.77;;
22097;SDS011;11215;51.938;8.464;2022-12-24T15:24:22;20.60;;;8.20;;
22097;SDS011;11215;51.938;8.464;2022-12-24T15:26:49;17.97;;;6.77;;
22097;SDS011;11215;51.938;8.464;2022-12-24T15:29:22;16.80;;;7.47;;
22097;SDS011;11215;51.938;8.464;2022-12-24T15:31:56;18.67;;;7.10;;
22097;SDS011;11215;51.938;8.464;2022-12-24T15:37:23;15.13;;;6.80;;
22097;SDS011;11215;51.938;8.464;2022-12-24T15:40:07;19.43;;;8.17;;
22097;SDS011;11215;51.938;8.464;2022-12-24T15:42:40;14.20;;;7.00;;
22097;SDS011;11215;51.938;8.464;2022-12-24T15:45:11;19.20;;;7.23;;
22097;SDS011;11215;51.938;8.464;2022-12-24T15:47:59;15.97;;;8.57;;
22097;SDS011;11215;51.938;8.464;2022-12-24T15:50:35;17.53;;;9.47;;
22097;SDS011;11215;51.938;8.464;2022-12-24T15:53:10;18.27;;;9.73;;
22097;SDS011;11215;51.938;8.464;2022-12-24T15:55:43;20.23;;;9.80;;
22097;SDS011;11215;51.938;8.464;2022-12-24T15:58:52;18.97;;;9.30;;
22097;SDS011;11215;51.938;8.464;2022-12-24T16:03:39;17.20;;;9.03;;
22097;SDS011;11215;51.938;8.464;2022-12-24T16:06:06;16.23;;;7.97;;
22097;SDS011;11215;51.938;8.464;2022-12-24T16:08:34;17.30;;;7.60;;
22097;SDS011;11215;51.938;8.464;2022-12-24T16:16:15;15.97;;;8.03;;
22097;SDS011;11215;51.938;8.464;2022-12-24T16:18:56;19.40;;;7.70;;
22097;SDS011;11215;51.938;8.464;2022-12-24T16:21:30;17.13;;;9.80;;
22097;SDS011;11215;51.938;8.464;2022-12-24T16:27:00;16.73;;;9.77;;
22097;SDS011;11215;51.938;8.464;2022-12-24T16:29:26;17.97;;;8.90;;
22097;SDS011;11215;51.938;8.464;2022-12-24T16:31:52;25.50;;;14.13;;
22097;SDS011;11215;51.938;8.464;2022-12-24T16:34:22;17.37;;;9.27;;
22097;SDS011;11215;51.938;8.464;2022-12-24T16:36:48;17.83;;;9.57;;
22097;SDS011;11215;51.938;8.464;2022-12-24T16:39:18;18.17;;;9.03;;
22097;SDS011;11215;51.938;8.464;2022-12-24T16:41:51;18.10;;;11.00;;
22097;SDS011;11215;51.938;8.464;2022-12-24T16:44:39;22.20;;;10.93;;
22097;SDS011;11215;51.938;8.464;2022-12-24T16:47:06;20.20;;;8.57;;
22097;SDS011;11215;51.938;8.464;2022-12-24T16:49:45;17.03;;;8.50;;
22097;SDS011;11215;51.938;8.464;2022-12-24T16:52:15;17.57;;;10.53;;
22097;SDS011;11215;51.938;8.464;2022-12-24T16:54:45;19.03;;;10.30;;
22097;SDS011;11215;51.938;8.464;2022-12-24T16:57:11;18.93;;;9.03;;
22097;SDS011;11215;51.938;8.464;2022-12-24T16:59:37;16.03;;;8.37;;
22097;SDS011;11215;51.938;8.464;2022-12-24T17:02:03;15.97;;;7.43;;
22097;SDS011;11215;51.938;8.464;2022-12-24T17:04:32;16.07;;;7.47;;
22097;SDS011;11215;51.938;8.464;2022-12-24T17:06:58;14.07;;;8.33;;
22097;SDS011;11215;51.938;8.464;2022-12-24T17:09:27;18.47;;;7.50;;
22097;SDS011;11215;51.938;8.464;2022-12-24T17:11:53;17.43;;;7.27;;
22097;SDS011;11215;51.938;8.464;2022-12-24T17:14:19;12.00;;;6.53;;
22097;SDS011;11215;51.938;8.464;2022-12-24T17:16:44;13.23;;;6.83;;
22097;SDS011;11215;51.938;8.464;2022-12-24T17:19:10;15.00;;;7.17;;
22097;SDS011;11215;51.938;8.464;2022-12-24T17:21:35;16.20;;;6.70;;
22097;SDS011;11215;51.938;8.464;2022-12-24T17:24:01;16.57;;;7.43;;
22097;SDS011;11215;51.938;8.464;2022-12-24T17:26:27;15.73;;;6.77;;
22097;SDS011;11215;51.938;8.464;2022-12-24T17:28:53;12.97;;;6.50;;
22097;SDS011;11215;51.938;8.464;2022-12-24T17:31:22;13.27;;;6.37;;
22097;SDS011;11215;51.938;8.464;2022-12-24T17:33:49;15.67;;;7.37;;